SVMI/CCS METAR and TAF weather

Enter ICAO airport designator
Station Type Date Time Source
SVMI METAR 2019/06/20 07:00 UTC NOAA

SVMI 200700Z 00000KT 9999 SCT016 27/21 Q1011


Station Type Date Time Source
SVMI Decoded METAR 2019/06/20 07:00 UTC NOAA

Caracas / Maiquetia Aerop. Intl. Simon Bolivar, Venezuela (SVMI) 10-36N 066-59W 48M
Jun 20, 2019 - 03:00 AM EDT / 2019.06.20 0700 UTC
Wind: Calm:0
Visibility: greater than 7 mile(s):0
Sky conditions: partly cloudy
Temperature: 80 F (27 C)
Dew Point: 69 F (21 C)
Relative Humidity: 69%
Pressure (altimeter): 29.85 in. Hg (1011 hPa)
ob: SVMI 200700Z 00000KT 9999 SCT016 27/21 Q1011
cycle: 7

Station Type Date Time Source
SVMI TAF 2019/06/20 06:05 UTC NOAA

TAF SVMI 200400Z 2006/2106 09005KT 9999 BKN016 TX28/2019Z TN23/2007Z
TEMPO 2006/2010 12004KT 9000 DZ OVC080

Example: see airport list